createdAt,value
2017-11-15T00:01:22.471Z,10.97
2017-11-15T00:03:50.054Z,11.70
2017-11-15T00:06:17.625Z,12.63
2017-11-15T00:08:45.238Z,10.60
2017-11-15T00:11:12.806Z,10.43
2017-11-15T00:13:40.374Z,12.50
2017-11-15T00:16:08.135Z,10.40
2017-11-15T00:18:35.702Z,11.50
2017-11-15T00:21:03.294Z,12.23
2017-11-15T00:23:30.871Z,12.07
2017-11-15T00:25:59.226Z,11.40
2017-11-15T00:28:26.835Z,11.10
2017-11-15T00:30:54.398Z,12.03
2017-11-15T00:33:21.981Z,12.37
2017-11-15T00:35:49.807Z,13.00
2017-11-15T00:38:18.169Z,12.53
2017-11-15T00:40:45.737Z,12.23
2017-11-15T00:43:13.304Z,11.47
2017-11-15T00:45:41.671Z,11.13
2017-11-15T00:48:09.240Z,10.80
2017-11-15T00:50:37.823Z,12.50
2017-11-15T00:53:06.158Z,12.40
2017-11-15T00:55:33.759Z,13.00
2017-11-15T00:58:01.320Z,11.63
2017-11-15T01:00:29.166Z,12.07
2017-11-15T01:02:56.719Z,12.00
2017-11-15T01:05:24.328Z,10.97
2017-11-15T01:07:52.657Z,10.70
2017-11-15T01:10:20.247Z,11.10
2017-11-15T01:12:47.823Z,11.63
2017-11-15T01:15:16.172Z,12.57
2017-11-15T01:17:43.799Z,12.70
2017-11-15T01:20:11.366Z,12.70
2017-11-15T01:22:38.962Z,12.97
2017-11-15T01:25:06.519Z,12.20
2017-11-15T01:27:34.124Z,13.43
2017-11-15T01:30:02.465Z,14.10
2017-11-15T01:32:30.024Z,13.80
2017-11-15T01:34:57.632Z,13.77
2017-11-15T01:37:25.198Z,14.40
2017-11-15T01:39:52.795Z,15.10
2017-11-15T01:42:20.677Z,14.33
2017-11-15T01:44:48.256Z,14.63
2017-11-15T01:47:16.767Z,13.50
2017-11-15T01:49:44.351Z,14.10
2017-11-15T01:52:12.031Z,13.77
2017-11-15T01:54:44.572Z,13.80
2017-11-15T01:57:12.152Z,12.87
2017-11-15T01:59:40.701Z,13.83
2017-11-15T02:02:08.265Z,13.87
2017-11-15T02:04:35.878Z,13.23
2017-11-15T02:07:03.436Z,13.93
2017-11-15T02:09:31.035Z,13.13
2017-11-15T02:11:58.630Z,13.70
2017-11-15T02:14:26.185Z,12.60
2017-11-15T02:16:53.872Z,13.57
2017-11-15T02:19:21.440Z,13.33
2017-11-15T02:21:49.001Z,13.20
2017-11-15T02:24:16.672Z,13.20
2017-11-15T02:26:44.245Z,11.47
2017-11-15T02:29:11.774Z,13.17
2017-11-15T02:31:39.407Z,13.60
2017-11-15T02:34:06.976Z,12.50
2017-11-15T02:36:34.542Z,12.77
2017-11-15T02:39:02.181Z,11.70
2017-11-15T02:41:30.491Z,11.93
2017-11-15T02:43:58.329Z,13.30
2017-11-15T02:46:25.893Z,12.20
2017-11-15T02:48:53.460Z,11.60
2017-11-15T02:51:25.156Z,11.33
2017-11-15T02:53:52.760Z,11.97
2017-11-15T02:56:20.338Z,11.80
2017-11-15T02:58:47.924Z,11.70
2017-11-15T03:01:15.516Z,12.07
2017-11-15T03:03:43.091Z,12.60
2017-11-15T03:06:11.564Z,11.90
2017-11-15T03:08:39.388Z,13.03
2017-11-15T03:11:06.942Z,12.63
2017-11-15T03:13:35.333Z,12.03
2017-11-15T03:16:02.888Z,12.50
2017-11-15T03:18:31.268Z,13.10
2017-11-15T03:20:59.008Z,15.73
2017-11-15T03:23:26.584Z,14.80
2017-11-15T03:25:54.167Z,14.60
2017-11-15T03:28:21.787Z,13.83
2017-11-15T03:30:49.370Z,14.10
2017-11-15T03:33:16.932Z,14.90
2017-11-15T03:35:44.520Z,13.50
2017-11-15T03:38:12.098Z,15.37
2017-11-15T03:40:40.225Z,16.07
2017-11-15T03:43:07.839Z,15.10
2017-11-15T03:45:35.440Z,15.63
2017-11-15T03:48:03.009Z,14.17
2017-11-15T03:50:30.779Z,19.07
2017-11-15T03:52:58.361Z,15.73
2017-11-15T03:55:25.921Z,14.80
2017-11-15T03:57:53.479Z,14.40
2017-11-15T04:00:21.125Z,13.40
2017-11-15T04:02:48.730Z,14.47
2017-11-15T04:05:16.669Z,14.10
2017-11-15T04:07:44.290Z,13.93
2017-11-15T04:10:11.861Z,15.30
2017-11-15T04:12:39.772Z,13.80
2017-11-15T04:15:07.342Z,14.07
2017-11-15T04:17:34.906Z,11.93
2017-11-15T04:20:02.525Z,13.90
2017-11-15T04:22:30.103Z,13.23
2017-11-15T04:24:57.814Z,13.27
2017-11-15T04:27:26.146Z,14.33
2017-11-15T04:29:53.791Z,13.90
2017-11-15T04:32:21.372Z,14.40
2017-11-15T04:34:48.935Z,14.20
2017-11-15T04:37:16.534Z,13.50
2017-11-15T04:39:44.098Z,13.63
2017-11-15T04:42:12.453Z,12.87
2017-11-15T04:44:40.016Z,14.00
2017-11-15T04:47:07.583Z,14.10
2017-11-15T04:49:35.175Z,14.13
2017-11-15T04:52:03.509Z,13.00
2017-11-15T04:54:31.083Z,14.23
2017-11-15T04:56:58.696Z,12.90
2017-11-15T04:59:26.286Z,14.50
2017-11-15T05:01:53.831Z,13.43
2017-11-15T05:04:21.424Z,12.90
2017-11-15T05:06:48.980Z,11.97
2017-11-15T05:09:16.664Z,13.63
2017-11-15T05:11:44.988Z,13.00
2017-11-15T05:14:12.567Z,13.43
2017-11-15T05:16:40.147Z,13.30
2017-11-15T05:19:07.834Z,11.57
2017-11-15T05:21:36.164Z,13.30
2017-11-15T05:24:03.716Z,12.50
2017-11-15T05:26:31.299Z,13.27
2017-11-15T05:28:58.878Z,12.37
2017-11-15T05:31:26.435Z,12.67
2017-11-15T05:33:54.037Z,13.37
2017-11-15T05:36:21.639Z,12.33
2017-11-15T05:38:49.226Z,12.70
2017-11-15T05:41:17.571Z,12.43
2017-11-15T05:43:45.131Z,12.47
2017-11-15T05:46:12.711Z,12.47
2017-11-15T05:48:40.271Z,12.10
2017-11-15T05:51:07.849Z,11.93
2017-11-15T05:53:36.216Z,11.90
2017-11-15T05:56:03.788Z,11.90
2017-11-15T05:58:31.384Z,12.40
2017-11-15T06:00:58.938Z,12.60
2017-11-15T06:03:26.566Z,11.80
2017-11-15T06:05:54.121Z,11.93
2017-11-15T06:08:21.712Z,13.07
2017-11-15T06:10:54.976Z,12.70
2017-11-15T06:13:22.724Z,12.30
2017-11-15T06:15:50.232Z,11.50
2017-11-15T06:18:17.776Z,11.50
2017-11-15T06:20:45.336Z,12.67
2017-11-15T06:23:13.738Z,13.53
2017-11-15T06:25:41.342Z,11.80
2017-11-15T06:28:09.005Z,11.50
2017-11-15T06:30:36.606Z,12.20
2017-11-15T06:33:04.869Z,10.73
2017-11-15T06:35:32.416Z,12.20
2017-11-15T06:38:00.055Z,11.80
2017-11-15T06:40:27.611Z,12.67
2017-11-15T06:42:55.579Z,11.97
2017-11-15T06:45:23.145Z,12.93
2017-11-15T06:47:50.798Z,12.90
2017-11-15T06:50:18.414Z,12.93
2017-11-15T06:52:46.815Z,14.17
2017-11-15T06:55:15.160Z,13.67
2017-11-15T06:57:42.713Z,12.43
2017-11-15T07:00:10.315Z,13.10
2017-11-15T07:02:37.921Z,13.10
2017-11-15T07:05:05.484Z,14.33
2017-11-15T07:07:33.072Z,12.80
2017-11-15T07:10:00.648Z,13.20
2017-11-15T07:12:29.007Z,12.33
2017-11-15T07:14:56.579Z,12.87
2017-11-15T07:17:24.937Z,12.73
2017-11-15T07:19:52.504Z,12.30
2017-11-15T07:22:20.089Z,11.60
2017-11-15T07:24:48.437Z,11.90
2017-11-15T07:27:16.012Z,13.27
2017-11-15T07:29:43.601Z,13.20
2017-11-15T07:32:11.171Z,12.73
2017-11-15T07:34:38.747Z,12.87
2017-11-15T07:37:06.302Z,12.47
2017-11-15T07:39:38.723Z,12.97
2017-11-15T07:42:13.531Z,12.20
2017-11-15T07:44:41.134Z,12.77
2017-11-15T07:47:09.529Z,12.70
2017-11-15T07:49:37.107Z,11.77
2017-11-15T07:52:04.741Z,12.70
2017-11-15T07:54:33.096Z,11.73
2017-11-15T07:57:00.696Z,12.30
2017-11-15T07:59:28.285Z,12.40
2017-11-15T08:02:00.361Z,10.93
2017-11-15T08:04:27.950Z,10.73
2017-11-15T08:06:55.503Z,10.43
2017-11-15T08:09:23.112Z,11.80
2017-11-15T08:11:51.460Z,9.50
2017-11-15T08:14:19.022Z,10.60
2017-11-15T08:16:46.636Z,8.93
2017-11-15T08:19:14.215Z,9.10
2017-11-15T08:21:41.787Z,10.20
2017-11-15T08:24:09.365Z,8.53
2017-11-15T08:26:36.966Z,8.77
2017-11-15T08:29:04.560Z,9.40
2017-11-15T08:31:32.159Z,9.27
2017-11-15T08:34:00.475Z,9.10
2017-11-15T08:36:28.573Z,9.73
2017-11-15T08:38:56.120Z,10.37
2017-11-15T08:41:24.492Z,9.60
2017-11-15T08:43:52.843Z,8.63
2017-11-15T08:46:20.435Z,10.00
2017-11-15T08:48:48.027Z,9.33
2017-11-15T08:51:15.603Z,8.90
2017-11-15T08:53:43.214Z,9.70
2017-11-15T08:56:10.803Z,9.67
2017-11-15T08:58:38.414Z,10.20
2017-11-15T09:01:06.009Z,9.30
2017-11-15T09:03:33.600Z,9.40
2017-11-15T09:06:01.190Z,10.10
2017-11-15T09:08:28.810Z,10.23
2017-11-15T09:10:56.459Z,10.50
2017-11-15T09:13:24.031Z,10.30
2017-11-15T09:15:51.635Z,11.77
2017-11-15T09:18:20.076Z,10.67
2017-11-15T09:20:47.771Z,11.23
2017-11-15T09:23:16.123Z,10.77
2017-11-15T09:25:43.706Z,10.00
2017-11-15T09:28:12.061Z,10.13
2017-11-15T09:30:39.628Z,10.33
2017-11-15T09:33:07.223Z,11.10
2017-11-15T09:35:34.815Z,9.70
2017-11-15T09:38:02.394Z,10.83
2017-11-15T09:40:30.800Z,10.97
2017-11-15T09:42:58.447Z,10.27
2017-11-15T09:45:26.231Z,11.23
2017-11-15T09:47:53.807Z,11.07
2017-11-15T09:50:25.629Z,10.03
2017-11-15T09:52:53.306Z,9.87
2017-11-15T09:55:20.878Z,9.53
2017-11-15T09:57:49.247Z,10.13
2017-11-15T10:00:16.818Z,9.27
2017-11-15T10:02:45.163Z,9.87
2017-11-15T10:05:13.660Z,9.50
2017-11-15T10:07:41.340Z,9.77
2017-11-15T10:10:08.907Z,9.57
2017-11-15T10:12:37.258Z,8.80
2017-11-15T10:15:04.852Z,9.20
2017-11-15T10:17:33.297Z,9.30
2017-11-15T10:20:00.876Z,9.03
2017-11-15T10:22:28.459Z,9.40
2017-11-15T10:24:56.804Z,8.60
2017-11-15T10:27:24.499Z,8.93
2017-11-15T10:29:52.856Z,8.83
2017-11-15T10:32:20.410Z,8.70
2017-11-15T10:34:48.147Z,8.20
2017-11-15T10:37:15.715Z,9.23
2017-11-15T10:39:43.288Z,8.60
2017-11-15T10:42:10.871Z,7.30
2017-11-15T10:44:38.423Z,8.83
2017-11-15T10:47:06.004Z,9.57
2017-11-15T10:49:34.359Z,9.23
2017-11-15T10:52:02.006Z,8.10
2017-11-15T10:54:31.310Z,8.27
2017-11-15T10:56:59.691Z,8.30
2017-11-15T10:59:27.267Z,9.03
2017-11-15T11:01:54.823Z,7.43
2017-11-15T11:04:22.375Z,8.07
2017-11-15T11:06:49.980Z,6.77
2017-11-15T11:09:18.315Z,7.43
2017-11-15T11:11:45.971Z,7.40
2017-11-15T11:14:13.560Z,8.87
2017-11-15T11:16:41.138Z,6.73
2017-11-15T11:19:09.467Z,7.13
2017-11-15T11:21:37.074Z,8.20
2017-11-15T11:24:05.453Z,7.87
2017-11-15T11:26:33.791Z,7.33
2017-11-15T11:29:01.369Z,7.60
2017-11-15T11:31:28.944Z,7.10
2017-11-15T11:33:56.528Z,6.80
2017-11-15T11:36:24.896Z,7.33
2017-11-15T11:38:53.277Z,6.83
2017-11-15T11:41:20.899Z,6.90
2017-11-15T11:43:48.487Z,6.50
2017-11-15T11:46:16.085Z,7.87
2017-11-15T11:48:43.744Z,8.40
2017-11-15T11:51:11.352Z,6.93
2017-11-15T11:53:38.928Z,7.40
2017-11-15T11:56:06.899Z,7.67
2017-11-15T11:58:34.475Z,5.87
2017-11-15T12:01:02.887Z,6.90
2017-11-15T12:03:30.472Z,7.50
2017-11-15T12:05:58.088Z,6.23
2017-11-15T12:08:26.455Z,6.17
2017-11-15T12:10:54.796Z,7.27
2017-11-15T12:13:22.396Z,6.63
2017-11-15T12:15:50.772Z,7.10
2017-11-15T12:18:19.134Z,6.47
2017-11-15T12:20:46.713Z,6.93
2017-11-15T12:23:14.279Z,5.57
2017-11-15T12:25:42.645Z,5.77
2017-11-15T12:28:10.222Z,5.73
2017-11-15T12:30:38.572Z,6.23
2017-11-15T12:33:06.939Z,6.93
2017-11-15T12:35:34.531Z,5.70
2017-11-15T12:38:02.113Z,5.73
2017-11-15T12:40:29.749Z,5.23
2017-11-15T12:42:57.343Z,6.57
2017-11-15T12:45:24.927Z,5.97
2017-11-15T12:47:52.536Z,6.90
2017-11-15T12:50:20.189Z,5.70
2017-11-15T12:52:47.773Z,5.50
2017-11-15T12:55:16.143Z,6.13
2017-11-15T12:57:43.794Z,6.20
2017-11-15T13:00:11.363Z,6.37
2017-11-15T13:02:38.958Z,5.70
2017-11-15T13:05:06.551Z,6.57
2017-11-15T13:07:34.123Z,6.60
2017-11-15T13:10:01.696Z,6.30
2017-11-15T13:12:29.271Z,5.50
2017-11-15T13:14:57.735Z,6.07
2017-11-15T13:17:25.312Z,5.20
2017-11-15T13:19:53.660Z,5.87
2017-11-15T13:22:21.243Z,6.03
2017-11-15T13:24:48.834Z,5.57
2017-11-15T13:27:17.178Z,5.57
2017-11-15T13:29:44.710Z,6.00
2017-11-15T13:32:12.275Z,6.20
2017-11-15T13:34:39.919Z,5.80
2017-11-15T13:37:07.786Z,5.77
2017-11-15T13:39:35.388Z,6.77
2017-11-15T13:42:02.974Z,5.90
2017-11-15T13:44:31.306Z,5.20
2017-11-15T13:46:58.952Z,6.00
2017-11-15T13:49:26.621Z,7.80
2017-11-15T13:51:54.240Z,6.03
2017-11-15T13:54:21.878Z,5.60
2017-11-15T13:56:49.476Z,6.43
2017-11-15T13:59:17.058Z,5.83
2017-11-15T14:01:44.660Z,5.93
2017-11-15T14:04:12.235Z,5.60
2017-11-15T14:06:39.829Z,5.53
2017-11-15T14:09:07.490Z,6.30
2017-11-15T14:11:35.815Z,5.80
2017-11-15T14:14:04.291Z,5.90
2017-11-15T14:16:31.882Z,5.90
2017-11-15T14:19:00.254Z,5.87
2017-11-15T14:21:27.873Z,7.60
2017-11-15T14:23:55.530Z,7.03
2017-11-15T14:26:23.133Z,17.63
2017-11-15T14:28:50.688Z,7.97
2017-11-15T14:31:18.292Z,5.63
2017-11-15T14:33:45.924Z,6.70
2017-11-15T14:36:14.183Z,6.53
2017-11-15T14:38:41.779Z,5.93
2017-11-15T14:41:10.143Z,7.13
2017-11-15T14:43:37.718Z,5.80
2017-11-15T14:46:05.317Z,5.47
2017-11-15T14:48:32.934Z,6.20
2017-11-15T14:51:01.304Z,5.90
2017-11-15T14:53:28.899Z,5.80
2017-11-15T14:55:56.460Z,5.73
2017-11-15T14:58:24.062Z,4.93
2017-11-15T15:00:51.776Z,5.67
2017-11-15T15:03:20.217Z,5.67
2017-11-15T15:05:48.081Z,6.37
2017-11-15T15:08:16.131Z,4.90
2017-11-15T15:10:43.780Z,5.23
2017-11-15T15:13:12.133Z,5.33
2017-11-15T15:15:40.529Z,5.00
2017-11-15T15:18:12.517Z,5.80
2017-11-15T15:20:40.757Z,6.00
2017-11-15T15:23:08.403Z,5.37
2017-11-15T15:25:36.750Z,5.50
2017-11-15T15:28:04.410Z,5.20
2017-11-15T15:30:31.992Z,4.87
2017-11-15T15:32:59.619Z,6.10
2017-11-15T15:35:27.204Z,5.37
2017-11-15T15:37:54.782Z,5.00
2017-11-15T15:40:22.366Z,5.27
2017-11-15T15:42:50.744Z,5.03
2017-11-15T15:45:19.097Z,5.93
2017-11-15T15:47:46.665Z,5.70
2017-11-15T15:50:14.267Z,6.23
2017-11-15T15:52:41.970Z,5.53
2017-11-15T15:55:09.588Z,5.93
2017-11-15T15:57:37.167Z,5.33
2017-11-15T16:00:04.806Z,6.40
2017-11-15T16:02:33.198Z,6.73
2017-11-15T16:05:02.277Z,5.37
2017-11-15T16:07:29.864Z,5.67
2017-11-15T16:09:57.438Z,5.67
2017-11-15T16:12:25.036Z,5.67
2017-11-15T16:14:52.657Z,5.80
2017-11-15T16:17:21.568Z,5.37
2017-11-15T16:19:49.151Z,4.57
2017-11-15T16:22:16.866Z,6.57
2017-11-15T16:24:44.451Z,5.97
2017-11-15T16:27:12.091Z,5.53
2017-11-15T16:29:39.740Z,5.17
2017-11-15T16:32:07.618Z,5.40
2017-11-15T16:34:35.323Z,5.10
2017-11-15T16:37:02.902Z,5.33
2017-11-15T16:39:31.265Z,5.80
2017-11-15T16:41:58.871Z,5.00
2017-11-15T16:44:26.519Z,5.57
2017-11-15T16:46:54.861Z,5.00
2017-11-15T16:49:22.414Z,5.43
2017-11-15T16:51:50.036Z,5.50
2017-11-15T16:54:17.957Z,5.13
2017-11-15T16:56:45.672Z,4.37
2017-11-15T16:59:13.251Z,5.07
2017-11-15T17:01:40.884Z,4.67
2017-11-15T17:04:08.448Z,5.17
2017-11-15T17:06:36.215Z,5.10
2017-11-15T17:09:04.391Z,5.20
2017-11-15T17:11:31.980Z,5.50
2017-11-15T17:13:59.601Z,5.47
2017-11-15T17:16:27.925Z,5.60
2017-11-15T17:18:55.610Z,5.30
2017-11-15T17:21:23.282Z,5.10
2017-11-15T17:23:50.872Z,5.17
2017-11-15T17:26:18.475Z,5.60
2017-11-15T17:28:46.083Z,5.23
2017-11-15T17:31:14.427Z,5.03
2017-11-15T17:33:41.991Z,5.33
2017-11-15T17:36:09.743Z,6.47
2017-11-15T17:38:37.349Z,6.33
2017-11-15T17:41:05.714Z,6.27
2017-11-15T17:43:33.330Z,5.70
2017-11-15T17:46:00.888Z,5.57
2017-11-15T17:48:28.460Z,5.40
2017-11-15T17:50:56.034Z,5.67
2017-11-15T17:53:23.670Z,6.07
2017-11-15T17:55:51.306Z,6.23
2017-11-15T17:58:18.915Z,5.30
2017-11-15T18:00:47.327Z,5.53
2017-11-15T18:03:14.940Z,5.57
2017-11-15T18:05:42.570Z,5.90
2017-11-15T18:08:10.214Z,6.60
2017-11-15T18:10:37.844Z,6.73
2017-11-15T18:13:05.494Z,7.10
2017-11-15T18:15:33.355Z,6.20
2017-11-15T18:18:00.947Z,6.77
2017-11-15T18:20:28.561Z,6.40
2017-11-15T18:22:56.142Z,6.77
2017-11-15T18:25:23.786Z,6.70
2017-11-15T18:27:51.391Z,6.27
2017-11-15T18:30:19.013Z,6.40
2017-11-15T18:32:48.052Z,6.23
2017-11-15T18:35:15.640Z,8.20
2017-11-15T18:37:44.095Z,6.87
2017-11-15T18:40:11.712Z,7.63
2017-11-15T18:42:39.450Z,7.00
2017-11-15T18:45:07.859Z,7.20
2017-11-15T18:47:35.999Z,7.30
2017-11-15T18:50:04.340Z,7.70
2017-11-15T18:52:31.976Z,7.53
2017-11-15T18:54:59.618Z,9.47
2017-11-15T18:57:27.270Z,8.30
2017-11-15T18:59:55.717Z,8.00
2017-11-15T19:02:26.500Z,8.20
2017-11-15T19:04:55.579Z,7.67
2017-11-15T19:07:24.257Z,9.37
2017-11-15T19:09:55.218Z,8.63
2017-11-15T19:12:22.872Z,8.37
2017-11-15T19:14:51.469Z,9.60
2017-11-15T19:17:21.768Z,9.10
2017-11-15T19:19:49.422Z,9.27
2017-11-15T19:22:17.075Z,8.83
2017-11-15T19:24:44.727Z,8.53
2017-11-15T19:27:12.364Z,8.60
2017-11-15T19:29:39.960Z,9.33
2017-11-15T19:32:07.554Z,9.93
2017-11-15T19:34:36.112Z,9.97
2017-11-15T19:37:04.873Z,9.17
2017-11-15T19:39:32.763Z,9.47
2017-11-15T19:42:00.714Z,8.17
2017-11-15T19:44:28.318Z,9.43
2017-11-15T19:46:55.977Z,9.57
2017-11-15T19:49:24.345Z,9.60
2017-11-15T19:51:52.738Z,8.53
2017-11-15T19:54:21.096Z,8.50
2017-11-15T19:56:48.730Z,9.70
2017-11-15T19:59:16.692Z,8.47
2017-11-15T20:01:44.394Z,9.17
2017-11-15T20:04:12.025Z,9.63
2017-11-15T20:06:39.599Z,8.30
2017-11-15T20:09:07.297Z,7.83
2017-11-15T20:11:35.606Z,8.80
2017-11-15T20:14:03.287Z,9.10
2017-11-15T20:16:30.871Z,8.27
2017-11-15T20:18:58.490Z,8.93
2017-11-15T20:21:26.980Z,8.40
2017-11-15T20:23:54.625Z,8.93
2017-11-15T20:26:23.119Z,8.47
2017-11-15T20:28:50.743Z,8.10
2017-11-15T20:31:18.401Z,8.43
2017-11-15T20:33:45.981Z,8.13
2017-11-15T20:36:13.618Z,9.07
2017-11-15T20:38:41.298Z,9.10
2017-11-15T20:41:08.941Z,8.97
2017-11-15T20:43:36.677Z,8.20
2017-11-15T20:46:04.268Z,7.77
2017-11-15T20:48:31.936Z,14.97
2017-11-15T20:50:59.545Z,11.63
2017-11-15T20:53:27.947Z,10.63
2017-11-15T20:55:55.629Z,9.30
2017-11-15T20:58:23.218Z,8.73
2017-11-15T21:00:50.814Z,9.70
2017-11-15T21:03:18.437Z,9.80
2017-11-15T21:05:46.141Z,10.10
2017-11-15T21:17:58.824Z,9.10
2017-11-15T21:20:26.471Z,9.10
2017-11-15T21:22:54.905Z,8.60
2017-11-15T21:25:22.570Z,10.20
2017-11-15T21:27:50.440Z,9.80
2017-11-15T21:40:03.048Z,9.23
2017-11-15T21:42:31.400Z,10.43
2017-11-15T21:44:59.018Z,9.83
2017-11-15T21:47:26.589Z,9.37
2017-11-15T21:49:54.198Z,10.40
2017-11-15T21:52:21.770Z,9.70
2017-11-15T21:54:49.394Z,9.50
2017-11-15T21:57:17.046Z,9.63
2017-11-15T21:59:44.655Z,8.50
2017-11-15T22:02:12.249Z,9.60
2017-11-15T22:04:39.829Z,9.07
2017-11-15T22:07:07.425Z,9.90
2017-11-15T22:09:35.121Z,11.00
2017-11-15T22:12:02.750Z,10.53
2017-11-15T22:14:30.341Z,11.47
2017-11-15T22:16:58.725Z,11.13
2017-11-15T22:19:27.078Z,12.37
2017-11-15T22:21:54.703Z,11.57
2017-11-15T22:24:22.294Z,10.43
2017-11-15T22:26:50.089Z,10.13
2017-11-15T22:29:17.691Z,11.17
2017-11-15T22:31:45.247Z,10.00
2017-11-15T22:34:12.864Z,10.83
2017-11-15T22:36:41.244Z,10.57
2017-11-15T22:39:09.631Z,10.20
2017-11-15T22:41:37.970Z,11.17
2017-11-15T22:44:05.614Z,10.70
2017-11-15T22:46:33.184Z,9.27
2017-11-15T22:49:00.775Z,10.97
2017-11-15T22:51:28.352Z,12.00
2017-11-15T22:53:56.667Z,11.07
2017-11-15T22:56:24.513Z,10.83
2017-11-15T22:58:52.078Z,9.80
2017-11-15T23:01:19.648Z,10.30
2017-11-15T23:03:47.212Z,10.70
2017-11-15T23:06:14.810Z,10.37
2017-11-15T23:08:42.444Z,10.20
2017-11-15T23:11:10.016Z,11.27
2017-11-15T23:13:37.603Z,13.57
2017-11-15T23:16:05.173Z,12.50
2017-11-15T23:18:32.781Z,12.87
2017-11-15T23:21:00.420Z,13.20
2017-11-15T23:23:28.810Z,15.40
2017-11-15T23:25:56.425Z,13.23
2017-11-15T23:28:24.012Z,13.40
2017-11-15T23:30:52.363Z,15.17
2017-11-15T23:33:19.935Z,13.67
2017-11-15T23:35:47.583Z,12.30
2017-11-15T23:38:15.340Z,12.33
2017-11-15T23:40:42.955Z,12.43
2017-11-15T23:43:10.539Z,12.07
2017-11-15T23:45:38.143Z,12.27
2017-11-15T23:48:05.773Z,11.87
2017-11-15T23:50:33.342Z,12.43
2017-11-15T23:53:00.971Z,12.80
2017-11-15T23:55:28.574Z,11.20
2017-11-15T23:57:56.178Z,11.00
